Terminal Aerodrome Forecast
Issued by NWS Charleston, WV

Current Version | Previous Version | Text Only | Print | Product List | Glossary On
Versions: 1 2 3 4 5 6 7 8 9 10 11 12 13 14 15 16 17 18 19 20 21 22 23 24 25 26 27
000
FTUS41 KRLX 150400 AAC
TAFEKN
TAF AMD
KEKN 150445Z 1505/1524 00000KT 1/4SM FG VV001
     FM151300 00000KT 2SM BR BKN001 BKN015
     FM151400 00000KT 5SM BR BKN015
     FM151500 24004KT P6SM SCT025=

USA.gov is the U.S. government's official web portal to all federal, state and local government web resources and services.